Hubbard Lake, Michigan
Current Conditions -  °F | °C
As of 2:06 AM on Thursday 23 Oct 2014 (Local Time) from KAPN Reporting Station
Haze Haze  
Wind Chill: 28°   Ceiling: 100
Heat Index: 28°   Visibility: 3mi
Dew Point: 26°   Wind: 0mph
Humidity: 92%   Direction: NA
Pressure: 30.29"   Gusts: NA
Location:  44.87°N, 83.59°W
Report Text: KAPN 230606Z AUTO 00000KT 3SM BR OVC001 M02/M03 A3029 RMK AO2 T10221033 TSNO
Loading
Personal Weather Stations






























Interactive Weather Map
Tropical Storm Tracking
New forecast layout! Learn more

10-Day Weather Forecast

Advertisements
Track Severe Weather on mobile